sensor_id;sensor_type;location;lat;lon;timestamp;temperature;humidity
15203;DHT22;7702;51.046;5.184;2024-03-08T00:00:08;4.30;82.70
15203;DHT22;7702;51.046;5.184;2024-03-08T00:02:44;4.30;79.50
15203;DHT22;7702;51.046;5.184;2024-03-08T00:05:10;4.20;76.20
15203;DHT22;7702;51.046;5.184;2024-03-08T00:07:36;4.20;74.50
15203;DHT22;7702;51.046;5.184;2024-03-08T00:10:08;4.10;73.20
15203;DHT22;7702;51.046;5.184;2024-03-08T00:12:42;4.10;72.00
15203;DHT22;7702;51.046;5.184;2024-03-08T00:15:13;4.10;71.40
15203;DHT22;7702;51.046;5.184;2024-03-08T00:17:42;4.10;67.10
15203;DHT22;7702;51.046;5.184;2024-03-08T00:20:08;4.10;63.40
15203;DHT22;7702;51.046;5.184;2024-03-08T00:22:36;4.10;63.40
15203;DHT22;7702;51.046;5.184;2024-03-08T00:25:06;4.10;59.60
15203;DHT22;7702;51.046;5.184;2024-03-08T00:27:35;4.10;56.20
15203;DHT22;7702;51.046;5.184;2024-03-08T00:30:01;4.10;55.10
15203;DHT22;7702;51.046;5.184;2024-03-08T00:32:27;4.00;50.80
15203;DHT22;7702;51.046;5.184;2024-03-08T00:34:57;4.00;50.60
15203;DHT22;7702;51.046;5.184;2024-03-08T00:37:23;4.00;48.10
15203;DHT22;7702;51.046;5.184;2024-03-08T00:39:49;4.00;46.50
15203;DHT22;7702;51.046;5.184;2024-03-08T00:42:16;4.00;44.70
15203;DHT22;7702;51.046;5.184;2024-03-08T00:44:42;3.90;43.50
15203;DHT22;7702;51.046;5.184;2024-03-08T00:47:07;3.90;41.50
15203;DHT22;7702;51.046;5.184;2024-03-08T00:49:33;3.90;42.00
15203;DHT22;7702;51.046;5.184;2024-03-08T00:51:59;3.90;38.20
15203;DHT22;7702;51.046;5.184;2024-03-08T00:54:25;3.90;35.30
15203;DHT22;7702;51.046;5.184;2024-03-08T00:56:51;3.80;34.90
15203;DHT22;7702;51.046;5.184;2024-03-08T00:59:17;3.70;35.70
15203;DHT22;7702;51.046;5.184;2024-03-08T01:01:43;3.80;34.90
15203;DHT22;7702;51.046;5.184;2024-03-08T01:04:10;3.80;32.10
15203;DHT22;7702;51.046;5.184;2024-03-08T01:06:35;3.80;28.80
15203;DHT22;7702;51.046;5.184;2024-03-08T01:09:01;3.80;30.00
15203;DHT22;7702;51.046;5.184;2024-03-08T01:11:27;3.80;27.80
15203;DHT22;7702;51.046;5.184;2024-03-08T01:13:53;3.80;28.10
15203;DHT22;7702;51.046;5.184;2024-03-08T01:16:19;3.80;27.30
15203;DHT22;7702;51.046;5.184;2024-03-08T01:18:48;3.70;26.80
15203;DHT22;7702;51.046;5.184;2024-03-08T01:21:13;3.60;29.60
15203;DHT22;7702;51.046;5.184;2024-03-08T01:23:39;3.50;33.00
15203;DHT22;7702;51.046;5.184;2024-03-08T01:26:05;3.60;30.80
15203;DHT22;7702;51.046;5.184;2024-03-08T01:28:32;3.60;30.10
15203;DHT22;7702;51.046;5.184;2024-03-08T01:30:59;3.60;28.70
15203;DHT22;7702;51.046;5.184;2024-03-08T01:33:26;3.60;28.60
15203;DHT22;7702;51.046;5.184;2024-03-08T01:35:52;3.50;30.00
15203;DHT22;7702;51.046;5.184;2024-03-08T01:38:21;3.50;30.20
15203;DHT22;7702;51.046;5.184;2024-03-08T01:40:48;3.40;30.80
15203;DHT22;7702;51.046;5.184;2024-03-08T01:43:26;3.40;31.20
15203;DHT22;7702;51.046;5.184;2024-03-08T01:45:57;3.40;30.60
15203;DHT22;7702;51.046;5.184;2024-03-08T01:48:28;3.40;31.70
15203;DHT22;7702;51.046;5.184;2024-03-08T01:50:58;3.30;35.40
15203;DHT22;7702;51.046;5.184;2024-03-08T01:53:24;3.30;32.50
15203;DHT22;7702;51.046;5.184;2024-03-08T01:55:55;3.30;33.00
15203;DHT22;7702;51.046;5.184;2024-03-08T01:58:22;3.20;33.10
15203;DHT22;7702;51.046;5.184;2024-03-08T02:00:48;3.20;32.30
15203;DHT22;7702;51.046;5.184;2024-03-08T02:03:15;3.20;32.90
15203;DHT22;7702;51.046;5.184;2024-03-08T02:05:41;3.30;32.30
15203;DHT22;7702;51.046;5.184;2024-03-08T02:08:08;3.30;30.00
15203;DHT22;7702;51.046;5.184;2024-03-08T02:10:38;3.30;30.50
15203;DHT22;7702;51.046;5.184;2024-03-08T02:13:04;3.20;32.10
15203;DHT22;7702;51.046;5.184;2024-03-08T02:18:18;3.10;33.00
15203;DHT22;7702;51.046;5.184;2024-03-08T02:20:48;3.10;34.60
15203;DHT22;7702;51.046;5.184;2024-03-08T02:23:14;3.10;35.80
15203;DHT22;7702;51.046;5.184;2024-03-08T02:25:40;3.10;34.80
15203;DHT22;7702;51.046;5.184;2024-03-08T02:28:12;3.00;37.70
15203;DHT22;7702;51.046;5.184;2024-03-08T02:30:38;3.00;36.60
15203;DHT22;7702;51.046;5.184;2024-03-08T02:33:05;3.00;37.00
15203;DHT22;7702;51.046;5.184;2024-03-08T02:35:31;3.00;37.40
15203;DHT22;7702;51.046;5.184;2024-03-08T02:37:57;3.00;37.10
15203;DHT22;7702;51.046;5.184;2024-03-08T02:40:23;3.00;35.50
15203;DHT22;7702;51.046;5.184;2024-03-08T02:42:49;3.00;36.80
15203;DHT22;7702;51.046;5.184;2024-03-08T02:45:15;3.00;36.40
15203;DHT22;7702;51.046;5.184;2024-03-08T02:47:42;2.90;38.80
15203;DHT22;7702;51.046;5.184;2024-03-08T02:50:08;3.00;37.40
15203;DHT22;7702;51.046;5.184;2024-03-08T02:52:34;3.00;35.30
15203;DHT22;7702;51.046;5.184;2024-03-08T02:55:04;3.00;35.90
15203;DHT22;7702;51.046;5.184;2024-03-08T02:57:31;3.10;34.40
15203;DHT22;7702;51.046;5.184;2024-03-08T02:59:57;3.00;36.00
15203;DHT22;7702;51.046;5.184;2024-03-08T03:02:25;2.90;37.20
15203;DHT22;7702;51.046;5.184;2024-03-08T03:04:52;3.00;36.00
15203;DHT22;7702;51.046;5.184;2024-03-08T03:07:18;3.00;35.70
15203;DHT22;7702;51.046;5.184;2024-03-08T03:09:44;3.00;35.40
15203;DHT22;7702;51.046;5.184;2024-03-08T03:12:10;3.00;35.20
15203;DHT22;7702;51.046;5.184;2024-03-08T03:14:36;3.00;34.20
15203;DHT22;7702;51.046;5.184;2024-03-08T03:17:05;2.90;34.60
15203;DHT22;7702;51.046;5.184;2024-03-08T03:19:31;2.90;35.30
15203;DHT22;7702;51.046;5.184;2024-03-08T03:21:57;2.90;35.30
15203;DHT22;7702;51.046;5.184;2024-03-08T03:24:23;2.90;35.40
15203;DHT22;7702;51.046;5.184;2024-03-08T03:26:49;2.90;34.60
15203;DHT22;7702;51.046;5.184;2024-03-08T03:29:15;2.90;36.70
15203;DHT22;7702;51.046;5.184;2024-03-08T03:31:42;2.80;36.50
15203;DHT22;7702;51.046;5.184;2024-03-08T03:34:11;2.80;37.20
15203;DHT22;7702;51.046;5.184;2024-03-08T03:36:37;2.80;37.10
15203;DHT22;7702;51.046;5.184;2024-03-08T03:39:08;2.80;36.30
15203;DHT22;7702;51.046;5.184;2024-03-08T03:41:42;2.70;37.80
15203;DHT22;7702;51.046;5.184;2024-03-08T03:44:10;2.80;39.80
15203;DHT22;7702;51.046;5.184;2024-03-08T03:46:35;2.80;37.50
15203;DHT22;7702;51.046;5.184;2024-03-08T03:49:01;2.80;36.30
15203;DHT22;7702;51.046;5.184;2024-03-08T03:51:27;2.70;37.80
15203;DHT22;7702;51.046;5.184;2024-03-08T03:53:52;2.70;39.60
15203;DHT22;7702;51.046;5.184;2024-03-08T03:56:19;2.70;38.50
15203;DHT22;7702;51.046;5.184;2024-03-08T03:58:50;2.70;39.80
15203;DHT22;7702;51.046;5.184;2024-03-08T04:01:16;2.70;40.70
15203;DHT22;7702;51.046;5.184;2024-03-08T04:03:42;2.70;39.20
15203;DHT22;7702;51.046;5.184;2024-03-08T04:06:08;2.60;39.00
15203;DHT22;7702;51.046;5.184;2024-03-08T04:08:34;2.60;40.40
15203;DHT22;7702;51.046;5.184;2024-03-08T04:11:00;2.60;41.70
15203;DHT22;7702;51.046;5.184;2024-03-08T04:13:26;2.60;39.80
15203;DHT22;7702;51.046;5.184;2024-03-08T04:15:53;2.60;40.40
15203;DHT22;7702;51.046;5.184;2024-03-08T04:18:18;2.60;40.30
15203;DHT22;7702;51.046;5.184;2024-03-08T04:20:44;2.60;40.20
15203;DHT22;7702;51.046;5.184;2024-03-08T04:23:11;2.60;41.10
15203;DHT22;7702;51.046;5.184;2024-03-08T04:25:37;2.60;42.60
15203;DHT22;7702;51.046;5.184;2024-03-08T04:28:03;2.60;40.30
15203;DHT22;7702;51.046;5.184;2024-03-08T04:30:28;2.50;42.50
15203;DHT22;7702;51.046;5.184;2024-03-08T04:32:55;2.50;43.60
15203;DHT22;7702;51.046;5.184;2024-03-08T04:35:21;2.50;42.60
15203;DHT22;7702;51.046;5.184;2024-03-08T04:37:47;2.40;44.20
15203;DHT22;7702;51.046;5.184;2024-03-08T04:40:12;2.40;44.40
15203;DHT22;7702;51.046;5.184;2024-03-08T04:42:39;2.50;46.00
15203;DHT22;7702;51.046;5.184;2024-03-08T04:45:06;2.40;44.80
15203;DHT22;7702;51.046;5.184;2024-03-08T04:47:33;2.40;45.90
15203;DHT22;7702;51.046;5.184;2024-03-08T04:49:59;2.40;45.40
15203;DHT22;7702;51.046;5.184;2024-03-08T04:52:25;2.40;46.70
15203;DHT22;7702;51.046;5.184;2024-03-08T04:54:51;2.40;45.80
15203;DHT22;7702;51.046;5.184;2024-03-08T04:57:17;2.40;46.90
15203;DHT22;7702;51.046;5.184;2024-03-08T04:59:45;2.40;47.90
15203;DHT22;7702;51.046;5.184;2024-03-08T05:02:11;2.40;47.10
15203;DHT22;7702;51.046;5.184;2024-03-08T05:04:37;2.40;45.80
15203;DHT22;7702;51.046;5.184;2024-03-08T05:07:03;2.30;48.10
15203;DHT22;7702;51.046;5.184;2024-03-08T05:09:29;2.30;49.40
15203;DHT22;7702;51.046;5.184;2024-03-08T05:11:57;2.30;49.50
15203;DHT22;7702;51.046;5.184;2024-03-08T05:14:25;2.30;50.20
15203;DHT22;7702;51.046;5.184;2024-03-08T05:16:51;2.30;50.60
15203;DHT22;7702;51.046;5.184;2024-03-08T05:19:20;2.30;49.30
15203;DHT22;7702;51.046;5.184;2024-03-08T05:21:46;2.30;49.70
15203;DHT22;7702;51.046;5.184;2024-03-08T05:24:13;2.30;50.70
15203;DHT22;7702;51.046;5.184;2024-03-08T05:26:40;2.30;49.70
15203;DHT22;7702;51.046;5.184;2024-03-08T05:29:05;2.30;51.70
15203;DHT22;7702;51.046;5.184;2024-03-08T05:31:49;2.20;50.70
15203;DHT22;7702;51.046;5.184;2024-03-08T05:34:16;2.20;51.40
15203;DHT22;7702;51.046;5.184;2024-03-08T05:36:42;2.30;52.20
15203;DHT22;7702;51.046;5.184;2024-03-08T05:39:12;2.20;52.60
15203;DHT22;7702;51.046;5.184;2024-03-08T05:41:40;2.30;49.00
15203;DHT22;7702;51.046;5.184;2024-03-08T05:44:06;2.30;48.90
15203;DHT22;7702;51.046;5.184;2024-03-08T05:46:32;2.30;48.50
15203;DHT22;7702;51.046;5.184;2024-03-08T05:48:57;2.20;48.70
15203;DHT22;7702;51.046;5.184;2024-03-08T05:51:27;2.30;49.80
15203;DHT22;7702;51.046;5.184;2024-03-08T05:53:53;2.30;48.80
15203;DHT22;7702;51.046;5.184;2024-03-08T05:56:22;2.30;48.00
15203;DHT22;7702;51.046;5.184;2024-03-08T05:58:50;2.30;46.70
15203;DHT22;7702;51.046;5.184;2024-03-08T06:01:16;2.40;46.00
15203;DHT22;7702;51.046;5.184;2024-03-08T06:03:42;2.30;47.60
15203;DHT22;7702;51.046;5.184;2024-03-08T06:06:14;2.30;47.90
15203;DHT22;7702;51.046;5.184;2024-03-08T06:08:41;2.40;46.10
15203;DHT22;7702;51.046;5.184;2024-03-08T06:11:09;2.40;45.80
15203;DHT22;7702;51.046;5.184;2024-03-08T06:13:35;2.30;46.00
15203;DHT22;7702;51.046;5.184;2024-03-08T06:16:01;2.30;47.50
15203;DHT22;7702;51.046;5.184;2024-03-08T06:18:30;2.30;46.50
15203;DHT22;7702;51.046;5.184;2024-03-08T06:20:56;2.30;48.90
15203;DHT22;7702;51.046;5.184;2024-03-08T06:23:22;2.30;49.80
15203;DHT22;7702;51.046;5.184;2024-03-08T06:25:48;2.40;46.70
15203;DHT22;7702;51.046;5.184;2024-03-08T06:28:13;2.40;45.20
15203;DHT22;7702;51.046;5.184;2024-03-08T06:30:40;2.40;44.60
15203;DHT22;7702;51.046;5.184;2024-03-08T06:33:05;2.50;44.50
15203;DHT22;7702;51.046;5.184;2024-03-08T06:35:32;2.40;44.30
15203;DHT22;7702;51.046;5.184;2024-03-08T06:38:01;2.40;44.20
15203;DHT22;7702;51.046;5.184;2024-03-08T06:40:27;2.50;42.90
15203;DHT22;7702;51.046;5.184;2024-03-08T06:42:52;2.60;40.40
15203;DHT22;7702;51.046;5.184;2024-03-08T06:45:18;2.60;40.30
15203;DHT22;7702;51.046;5.184;2024-03-08T06:47:47;2.60;41.00
15203;DHT22;7702;51.046;5.184;2024-03-08T06:50:13;2.60;40.20
15203;DHT22;7702;51.046;5.184;2024-03-08T06:52:41;2.70;37.90
15203;DHT22;7702;51.046;5.184;2024-03-08T06:55:08;2.70;36.90
15203;DHT22;7702;51.046;5.184;2024-03-08T06:57:41;2.80;37.80
15203;DHT22;7702;51.046;5.184;2024-03-08T07:00:10;2.90;34.90
15203;DHT22;7702;51.046;5.184;2024-03-08T07:02:38;2.90;34.10
15203;DHT22;7702;51.046;5.184;2024-03-08T07:05:05;3.00;31.50
15203;DHT22;7702;51.046;5.184;2024-03-08T07:07:31;3.10;30.20
15203;DHT22;7702;51.046;5.184;2024-03-08T07:09:59;3.20;26.70
15203;DHT22;7702;51.046;5.184;2024-03-08T07:12:24;3.30;26.30
15203;DHT22;7702;51.046;5.184;2024-03-08T07:14:51;3.40;22.00
15203;DHT22;7702;51.046;5.184;2024-03-08T07:17:17;3.50;20.60
15203;DHT22;7702;51.046;5.184;2024-03-08T07:19:43;3.50;19.90
15203;DHT22;7702;51.046;5.184;2024-03-08T07:22:08;3.60;16.90
15203;DHT22;7702;51.046;5.184;2024-03-08T07:24:37;3.70;16.20
15203;DHT22;7702;51.046;5.184;2024-03-08T07:27:25;3.70;13.70
15203;DHT22;7702;51.046;5.184;2024-03-08T07:29:51;3.80;13.90
15203;DHT22;7702;51.046;5.184;2024-03-08T07:32:17;3.90;11.80
15203;DHT22;7702;51.046;5.184;2024-03-08T07:34:51;3.90;11.90
15203;DHT22;7702;51.046;5.184;2024-03-08T07:37:20;4.10;8.20
15203;DHT22;7702;51.046;5.184;2024-03-08T07:39:46;4.10;5.00
15203;DHT22;7702;51.046;5.184;2024-03-08T07:42:12;4.20;2.90
15203;DHT22;7702;51.046;5.184;2024-03-08T07:44:38;4.30;1.80
15203;DHT22;7702;51.046;5.184;2024-03-08T07:47:04;4.30;3.60
15203;DHT22;7702;51.046;5.184;2024-03-08T07:49:30;4.40;1.60
15203;DHT22;7702;51.046;5.184;2024-03-08T07:51:59;4.50;1.00
15203;DHT22;7702;51.046;5.184;2024-03-08T07:54:24;4.70;1.00
15203;DHT22;7702;51.046;5.184;2024-03-08T07:56:51;4.80;1.00
15203;DHT22;7702;51.046;5.184;2024-03-08T07:59:18;4.90;1.00
15203;DHT22;7702;51.046;5.184;2024-03-08T08:01:44;5.00;1.00
15203;DHT22;7702;51.046;5.184;2024-03-08T08:04:10;5.10;1.00
15203;DHT22;7702;51.046;5.184;2024-03-08T08:06:39;5.20;1.00
15203;DHT22;7702;51.046;5.184;2024-03-08T08:09:07;5.30;1.00
15203;DHT22;7702;51.046;5.184;2024-03-08T08:11:54;5.40;1.00
15203;DHT22;7702;51.046;5.184;2024-03-08T08:14:20;5.50;1.00
15203;DHT22;7702;51.046;5.184;2024-03-08T08:16:47;5.60;1.00
15203;DHT22;7702;51.046;5.184;2024-03-08T08:19:16;5.80;1.00
15203;DHT22;7702;51.046;5.184;2024-03-08T08:21:43;5.90;1.00
15203;DHT22;7702;51.046;5.184;2024-03-08T08:24:08;6.00;1.00
15203;DHT22;7702;51.046;5.184;2024-03-08T08:26:34;6.10;1.00
15203;DHT22;7702;51.046;5.184;2024-03-08T08:29:01;6.20;1.00
15203;DHT22;7702;51.046;5.184;2024-03-08T08:31:27;6.30;1.00
15203;DHT22;7702;51.046;5.184;2024-03-08T08:33:53;6.50;1.00
15203;DHT22;7702;51.046;5.184;2024-03-08T08:36:26;6.70;1.00
15203;DHT22;7702;51.046;5.184;2024-03-08T08:38:55;6.80;1.00
15203;DHT22;7702;51.046;5.184;2024-03-08T08:41:21;6.90;1.00
15203;DHT22;7702;51.046;5.184;2024-03-08T08:43:48;6.90;1.00
15203;DHT22;7702;51.046;5.184;2024-03-08T08:46:18;7.00;1.00
15203;DHT22;7702;51.046;5.184;2024-03-08T08:48:44;7.10;1.00
15203;DHT22;7702;51.046;5.184;2024-03-08T08:51:14;7.00;1.00
15203;DHT22;7702;51.046;5.184;2024-03-08T08:53:41;7.20;1.00
15203;DHT22;7702;51.046;5.184;2024-03-08T08:56:09;7.40;1.00
15203;DHT22;7702;51.046;5.184;2024-03-08T08:58:41;7.30;1.00
15203;DHT22;7702;51.046;5.184;2024-03-08T09:01:09;7.40;1.00
15203;DHT22;7702;51.046;5.184;2024-03-08T09:03:37;7.60;1.00
15203;DHT22;7702;51.046;5.184;2024-03-08T09:06:06;7.70;1.00
15203;DHT22;7702;51.046;5.184;2024-03-08T09:08:38;8.00;1.00
15203;DHT22;7702;51.046;5.184;2024-03-08T09:11:04;8.10;1.00
15203;DHT22;7702;51.046;5.184;2024-03-08T09:13:31;8.20;1.00
15203;DHT22;7702;51.046;5.184;2024-03-08T09:15:57;8.30;1.00
15203;DHT22;7702;51.046;5.184;2024-03-08T09:18:22;8.50;1.00
15203;DHT22;7702;51.046;5.184;2024-03-08T09:20:49;8.50;1.00
15203;DHT22;7702;51.046;5.184;2024-03-08T09:23:15;8.60;1.00
15203;DHT22;7702;51.046;5.184;2024-03-08T09:25:42;8.60;1.00
15203;DHT22;7702;51.046;5.184;2024-03-08T09:28:09;8.50;1.00
15203;DHT22;7702;51.046;5.184;2024-03-08T09:30:37;8.50;1.00
15203;DHT22;7702;51.046;5.184;2024-03-08T09:33:04;8.60;1.00
15203;DHT22;7702;51.046;5.184;2024-03-08T09:35:30;8.90;1.00
15203;DHT22;7702;51.046;5.184;2024-03-08T09:37:55;9.10;1.00
15203;DHT22;7702;51.046;5.184;2024-03-08T09:40:21;9.30;1.00
15203;DHT22;7702;51.046;5.184;2024-03-08T09:42:49;9.20;1.00
15203;DHT22;7702;51.046;5.184;2024-03-08T09:45:17;9.20;1.00
15203;DHT22;7702;51.046;5.184;2024-03-08T09:47:43;9.30;1.00
15203;DHT22;7702;51.046;5.184;2024-03-08T09:50:10;9.50;1.00
15203;DHT22;7702;51.046;5.184;2024-03-08T09:52:39;9.60;1.00
15203;DHT22;7702;51.046;5.184;2024-03-08T09:55:06;10.00;1.00
15203;DHT22;7702;51.046;5.184;2024-03-08T09:57:36;10.00;1.00
15203;DHT22;7702;51.046;5.184;2024-03-08T10:00:03;10.20;1.00
15203;DHT22;7702;51.046;5.184;2024-03-08T10:02:35;10.20;1.00
15203;DHT22;7702;51.046;5.184;2024-03-08T10:05:01;10.20;1.00
15203;DHT22;7702;51.046;5.184;2024-03-08T10:07:29;10.40;1.00
15203;DHT22;7702;51.046;5.184;2024-03-08T10:09:54;10.40;1.00
15203;DHT22;7702;51.046;5.184;2024-03-08T10:12:20;10.20;1.00
15203;DHT22;7702;51.046;5.184;2024-03-08T10:14:46;10.30;1.00
15203;DHT22;7702;51.046;5.184;2024-03-08T10:17:12;10.50;1.00
15203;DHT22;7702;51.046;5.184;2024-03-08T10:19:38;10.40;1.00
15203;DHT22;7702;51.046;5.184;2024-03-08T10:22:05;10.50;1.00
15203;DHT22;7702;51.046;5.184;2024-03-08T10:24:32;10.50;1.00
15203;DHT22;7702;51.046;5.184;2024-03-08T10:27:02;10.50;1.00
15203;DHT22;7702;51.046;5.184;2024-03-08T10:29:33;10.40;1.00
15203;DHT22;7702;51.046;5.184;2024-03-08T10:31:59;10.50;1.00
15203;DHT22;7702;51.046;5.184;2024-03-08T10:34:25;10.60;1.00
15203;DHT22;7702;51.046;5.184;2024-03-08T10:36:51;10.80;1.00
15203;DHT22;7702;51.046;5.184;2024-03-08T10:39:24;10.80;1.00
15203;DHT22;7702;51.046;5.184;2024-03-08T10:41:57;11.10;1.00
15203;DHT22;7702;51.046;5.184;2024-03-08T10:49:41;11.10;1.00
15203;DHT22;7702;51.046;5.184;2024-03-08T10:52:11;11.00;1.00
15203;DHT22;7702;51.046;5.184;2024-03-08T10:54:39;11.10;1.00
15203;DHT22;7702;51.046;5.184;2024-03-08T10:57:06;11.20;1.00
15203;DHT22;7702;51.046;5.184;2024-03-08T10:59:34;11.50;1.00
15203;DHT22;7702;51.046;5.184;2024-03-08T11:02:01;11.50;1.00
15203;DHT22;7702;51.046;5.184;2024-03-08T11:04:27;11.50;1.00
15203;DHT22;7702;51.046;5.184;2024-03-08T11:07:00;11.30;1.00
15203;DHT22;7702;51.046;5.184;2024-03-08T11:09:42;11.50;1.00
15203;DHT22;7702;51.046;5.184;2024-03-08T11:14:55;11.00;1.00
15203;DHT22;7702;51.046;5.184;2024-03-08T11:17:27;11.00;1.00
15203;DHT22;7702;51.046;5.184;2024-03-08T11:20:18;11.10;1.00
15203;DHT22;7702;51.046;5.184;2024-03-08T11:23:04;11.20;1.00
15203;DHT22;7702;51.046;5.184;2024-03-08T11:25:41;11.50;1.00
15203;DHT22;7702;51.046;5.184;2024-03-08T11:28:17;11.50;1.00
15203;DHT22;7702;51.046;5.184;2024-03-08T11:33:27;11.40;1.00
15203;DHT22;7702;51.046;5.184;2024-03-08T11:36:09;11.70;1.00
15203;DHT22;7702;51.046;5.184;2024-03-08T11:38:43;12.10;1.00
15203;DHT22;7702;51.046;5.184;2024-03-08T11:41:26;12.50;1.00
15203;DHT22;7702;51.046;5.184;2024-03-08T11:44:03;12.50;1.00
15203;DHT22;7702;51.046;5.184;2024-03-08T11:46:32;12.20;1.00
15203;DHT22;7702;51.046;5.184;2024-03-08T11:49:00;12.50;1.00
15203;DHT22;7702;51.046;5.184;2024-03-08T11:51:27;12.20;1.00
15203;DHT22;7702;51.046;5.184;2024-03-08T11:53:53;12.20;1.00
15203;DHT22;7702;51.046;5.184;2024-03-08T11:56:19;12.20;1.00
15203;DHT22;7702;51.046;5.184;2024-03-08T11:58:55;12.40;1.00
15203;DHT22;7702;51.046;5.184;2024-03-08T12:01:24;12.70;1.00
15203;DHT22;7702;51.046;5.184;2024-03-08T12:03:54;12.60;1.00
15203;DHT22;7702;51.046;5.184;2024-03-08T12:06:20;12.60;1.00
15203;DHT22;7702;51.046;5.184;2024-03-08T12:08:46;12.60;1.00
15203;DHT22;7702;51.046;5.184;2024-03-08T12:11:17;12.90;1.00
15203;DHT22;7702;51.046;5.184;2024-03-08T12:13:49;13.20;1.00
15203;DHT22;7702;51.046;5.184;2024-03-08T12:16:17;13.10;1.00
15203;DHT22;7702;51.046;5.184;2024-03-08T12:18:50;13.30;99.90
15203;DHT22;7702;51.046;5.184;2024-03-08T12:21:18;13.10;99.90
15203;DHT22;7702;51.046;5.184;2024-03-08T12:23:46;12.70;99.90
15203;DHT22;7702;51.046;5.184;2024-03-08T12:26:23;12.60;1.00
15203;DHT22;7702;51.046;5.184;2024-03-08T12:28:49;12.30;1.00
15203;DHT22;7702;51.046;5.184;2024-03-08T12:31:16;12.30;1.00
15203;DHT22;7702;51.046;5.184;2024-03-08T12:33:52;12.60;1.00
15203;DHT22;7702;51.046;5.184;2024-03-08T12:36:19;12.50;1.00
15203;DHT22;7702;51.046;5.184;2024-03-08T12:38:48;12.40;1.00
15203;DHT22;7702;51.046;5.184;2024-03-08T12:41:19;12.50;1.00
15203;DHT22;7702;51.046;5.184;2024-03-08T12:43:45;12.50;1.00
15203;DHT22;7702;51.046;5.184;2024-03-08T12:46:18;12.60;1.00
15203;DHT22;7702;51.046;5.184;2024-03-08T12:48:47;12.50;1.00
15203;DHT22;7702;51.046;5.184;2024-03-08T12:51:14;12.60;1.00
15203;DHT22;7702;51.046;5.184;2024-03-08T12:53:41;12.40;1.00
15203;DHT22;7702;51.046;5.184;2024-03-08T12:56:10;12.10;1.00
15203;DHT22;7702;51.046;5.184;2024-03-08T12:58:36;12.20;1.00
15203;DHT22;7702;51.046;5.184;2024-03-08T13:01:05;12.40;1.00
15203;DHT22;7702;51.046;5.184;2024-03-08T13:03:36;12.50;1.00
15203;DHT22;7702;51.046;5.184;2024-03-08T13:06:05;12.30;1.00
15203;DHT22;7702;51.046;5.184;2024-03-08T13:08:35;12.30;1.00
15203;DHT22;7702;51.046;5.184;2024-03-08T13:11:03;12.10;1.00
15203;DHT22;7702;51.046;5.184;2024-03-08T13:13:29;12.10;1.00
15203;DHT22;7702;51.046;5.184;2024-03-08T13:15:54;12.10;1.00
15203;DHT22;7702;51.046;5.184;2024-03-08T13:18:22;12.30;1.00
15203;DHT22;7702;51.046;5.184;2024-03-08T13:20:48;12.40;1.00
15203;DHT22;7702;51.046;5.184;2024-03-08T13:23:17;12.50;1.00
15203;DHT22;7702;51.046;5.184;2024-03-08T13:25:43;12.50;1.00
15203;DHT22;7702;51.046;5.184;2024-03-08T13:28:09;12.60;1.00
15203;DHT22;7702;51.046;5.184;2024-03-08T13:30:36;12.40;1.00
15203;DHT22;7702;51.046;5.184;2024-03-08T13:33:02;12.40;1.00
15203;DHT22;7702;51.046;5.184;2024-03-08T13:35:30;12.40;1.00
15203;DHT22;7702;51.046;5.184;2024-03-08T13:37:56;12.40;1.00
15203;DHT22;7702;51.046;5.184;2024-03-08T13:40:22;12.50;1.00
15203;DHT22;7702;51.046;5.184;2024-03-08T13:42:48;12.40;1.00
15203;DHT22;7702;51.046;5.184;2024-03-08T13:45:15;12.40;1.00
15203;DHT22;7702;51.046;5.184;2024-03-08T13:47:48;12.40;1.00
15203;DHT22;7702;51.046;5.184;2024-03-08T13:50:15;12.50;1.00
15203;DHT22;7702;51.046;5.184;2024-03-08T13:52:47;12.40;1.00
15203;DHT22;7702;51.046;5.184;2024-03-08T13:55:15;12.30;1.00
15203;DHT22;7702;51.046;5.184;2024-03-08T13:57:40;12.40;1.00
15203;DHT22;7702;51.046;5.184;2024-03-08T14:00:07;12.50;1.00
15203;DHT22;7702;51.046;5.184;2024-03-08T14:02:33;12.50;1.00
15203;DHT22;7702;51.046;5.184;2024-03-08T14:04:59;12.30;1.00
15203;DHT22;7702;51.046;5.184;2024-03-08T14:07:27;12.30;1.00
15203;DHT22;7702;51.046;5.184;2024-03-08T14:09:54;12.30;1.00
15203;DHT22;7702;51.046;5.184;2024-03-08T14:12:20;12.30;1.00
15203;DHT22;7702;51.046;5.184;2024-03-08T14:14:46;12.30;1.00
15203;DHT22;7702;51.046;5.184;2024-03-08T14:17:11;12.40;1.00
15203;DHT22;7702;51.046;5.184;2024-03-08T14:19:42;12.40;1.00
15203;DHT22;7702;51.046;5.184;2024-03-08T14:22:09;12.40;1.00
15203;DHT22;7702;51.046;5.184;2024-03-08T14:24:38;12.60;1.00
15203;DHT22;7702;51.046;5.184;2024-03-08T14:27:05;12.60;1.00
15203;DHT22;7702;51.046;5.184;2024-03-08T14:29:34;12.50;1.00
15203;DHT22;7702;51.046;5.184;2024-03-08T14:31:59;12.60;1.00
15203;DHT22;7702;51.046;5.184;2024-03-08T14:34:26;12.80;1.00
15203;DHT22;7702;51.046;5.184;2024-03-08T14:36:55;12.70;1.00
15203;DHT22;7702;51.046;5.184;2024-03-08T14:39:21;12.60;1.00
15203;DHT22;7702;51.046;5.184;2024-03-08T14:41:50;12.60;1.00
15203;DHT22;7702;51.046;5.184;2024-03-08T14:44:19;12.50;1.00
15203;DHT22;7702;51.046;5.184;2024-03-08T14:46:45;12.60;1.00
15203;DHT22;7702;51.046;5.184;2024-03-08T14:49:11;12.60;1.00
15203;DHT22;7702;51.046;5.184;2024-03-08T14:51:37;12.60;1.00
15203;DHT22;7702;51.046;5.184;2024-03-08T14:54:03;12.50;1.00
15203;DHT22;7702;51.046;5.184;2024-03-08T14:56:36;12.50;1.00
15203;DHT22;7702;51.046;5.184;2024-03-08T14:59:02;12.60;1.00
15203;DHT22;7702;51.046;5.184;2024-03-08T15:01:30;12.60;1.00
15203;DHT22;7702;51.046;5.184;2024-03-08T15:03:58;12.80;1.00
15203;DHT22;7702;51.046;5.184;2024-03-08T15:06:35;12.80;1.00
15203;DHT22;7702;51.046;5.184;2024-03-08T15:09:02;12.90;99.90
15203;DHT22;7702;51.046;5.184;2024-03-08T15:11:38;13.00;99.90
15203;DHT22;7702;51.046;5.184;2024-03-08T15:14:05;13.30;99.90
15203;DHT22;7702;51.046;5.184;2024-03-08T15:16:38;13.30;1.00
15203;DHT22;7702;51.046;5.184;2024-03-08T15:19:08;13.40;1.00
15203;DHT22;7702;51.046;5.184;2024-03-08T15:21:34;13.60;1.00
15203;DHT22;7702;51.046;5.184;2024-03-08T15:24:00;13.80;1.00
15203;DHT22;7702;51.046;5.184;2024-03-08T15:26:31;13.60;99.90
15203;DHT22;7702;51.046;5.184;2024-03-08T15:28:57;13.50;1.00
15203;DHT22;7702;51.046;5.184;2024-03-08T15:31:23;13.30;1.00
15203;DHT22;7702;51.046;5.184;2024-03-08T15:33:53;13.20;1.00
15203;DHT22;7702;51.046;5.184;2024-03-08T15:36:26;13.10;1.00
15203;DHT22;7702;51.046;5.184;2024-03-08T15:38:54;13.10;99.90
15203;DHT22;7702;51.046;5.184;2024-03-08T15:41:20;13.60;1.00
15203;DHT22;7702;51.046;5.184;2024-03-08T15:43:46;14.00;1.00
15203;DHT22;7702;51.046;5.184;2024-03-08T15:46:13;14.20;99.90
15203;DHT22;7702;51.046;5.184;2024-03-08T15:48:40;14.40;1.00
15203;DHT22;7702;51.046;5.184;2024-03-08T15:51:07;14.70;1.00
15203;DHT22;7702;51.046;5.184;2024-03-08T15:53:36;15.40;1.00
15203;DHT22;7702;51.046;5.184;2024-03-08T15:56:03;15.80;1.00
15203;DHT22;7702;51.046;5.184;2024-03-08T15:58:32;16.10;1.00
15203;DHT22;7702;51.046;5.184;2024-03-08T16:00:58;16.00;1.00
15203;DHT22;7702;51.046;5.184;2024-03-08T16:03:27;15.90;99.90
15203;DHT22;7702;51.046;5.184;2024-03-08T16:05:55;15.70;99.90
15203;DHT22;7702;51.046;5.184;2024-03-08T16:08:21;15.90;99.90
15203;DHT22;7702;51.046;5.184;2024-03-08T16:10:49;15.60;1.00
15203;DHT22;7702;51.046;5.184;2024-03-08T16:13:20;15.90;99.90
15203;DHT22;7702;51.046;5.184;2024-03-08T16:15:51;16.20;99.90
15203;DHT22;7702;51.046;5.184;2024-03-08T16:18:17;15.80;99.90